Time;durP1;ratioP1;P1;durP2;ratioP2;P2;SDS_P1;SDS_P2;PMS_P1;PMS_P2;Temp;Humidity;BMP_temperature;BMP_pressure;BME280_temperature;BME280_humidity;BME280_pressure;Samples;Min_cycle;Max_cycle;Signal;HPM_P1;HPM_P2
2024/01/07 00:01:48;;;;;;;30.17;19.70;;;6.10;76.20;;;;;;5039541;28;20471;-64
2024/01/07 00:04:15;;;;;;;31.23;19.33;;;6.10;76.20;;;;;;5048377;28;20044;-63
2024/01/07 00:06:46;;;;;;;29.27;19.60;;;6.10;76.30;;;;;;5048322;28;20072;-67
2024/01/07 00:09:13;;;;;;;33.67;20.70;;;6.10;76.20;;;;;;5043165;28;20136;-64
2024/01/07 00:11:40;;;;;;;32.88;20.63;;;6.10;76.10;;;;;;5026454;28;20052;-64
2024/01/07 00:14:07;;;;;;;32.75;20.88;;;6.10;76.10;;;;;;5048282;28;20127;-64
2024/01/07 00:16:34;;;;;;;31.75;19.75;;;6.10;76.10;;;;;;5045107;28;20070;-64
2024/01/07 00:19:01;;;;;;;32.75;20.98;;;6.00;76.20;;;;;;5042608;28;20072;-66
2024/01/07 00:21:28;;;;;;;31.90;20.73;;;6.00;76.40;;;;;;5047412;28;20064;-63
2024/01/07 00:23:56;;;;;;;33.83;20.83;;;6.00;76.50;;;;;;5046185;28;20503;-63
2024/01/07 00:26:23;;;;;;;36.60;22.27;;;6.10;76.50;;;;;;5048617;28;20043;-64
2024/01/07 00:28:50;;;;;;;34.85;22.45;;;6.00;76.40;;;;;;5047000;28;20099;-64
2024/01/07 00:31:16;;;;;;;34.33;22.88;;;6.00;76.50;;;;;;5050837;28;20056;-64
2024/01/07 00:33:43;;;;;;;41.00;23.02;;;6.00;77.20;;;;;;5051609;28;20041;-64
2024/01/07 00:36:11;;;;;;;39.97;24.45;;;6.00;76.50;;;;;;5032402;28;20072;-64
2024/01/07 00:38:37;;;;;;;33.97;21.70;;;6.00;76.50;;;;;;5050606;28;20095;-63
2024/01/07 00:41:05;;;;;;;35.63;22.98;;;6.00;76.50;;;;;;5051083;28;20087;-63
2024/01/07 00:43:31;;;;;;;32.20;21.58;;;6.00;76.60;;;;;;5030178;28;20061;-64
2024/01/07 00:45:58;;;;;;;32.55;20.63;;;6.00;76.70;;;;;;5032930;28;20068;-65
2024/01/07 00:48:28;;;;;;;31.63;20.35;;;6.00;76.80;;;;;;5026695;28;20050;-64
2024/01/07 00:50:55;;;;;;;36.90;22.35;;;6.00;77.00;;;;;;5030664;28;20056;-64
2024/01/07 00:53:21;;;;;;;34.85;21.05;;;6.00;77.00;;;;;;5029196;28;20049;-64
2024/01/07 00:55:48;;;;;;;33.78;20.33;;;6.00;77.10;;;;;;5032512;28;20515;-64
2024/01/07 00:58:17;;;;;;;31.35;19.38;;;6.00;77.20;;;;;;5031632;28;20128;-64
2024/01/07 01:00:44;;;;;;;33.22;19.77;;;6.00;77.20;;;;;;5050684;28;20088;-63
2024/01/07 01:03:13;;;;;;;32.00;20.00;;;6.10;77.20;;;;;;5049728;28;20044;-64
2024/01/07 01:05:47;;;;;;;36.95;21.02;;;6.10;77.10;;;;;;5041489;28;20135;-64
2024/01/07 01:08:14;;;;;;;31.65;20.02;;;6.00;77.10;;;;;;5030610;28;20045;-64
2024/01/07 01:10:42;;;;;;;30.67;19.83;;;6.10;77.30;;;;;;5045938;28;20045;-65
2024/01/07 01:13:11;;;;;;;31.50;19.90;;;6.10;77.20;;;;;;5030375;28;20575;-65
2024/01/07 01:15:38;;;;;;;31.25;19.27;;;6.10;77.20;;;;;;5031388;28;20094;-64
2024/01/07 01:18:08;;;;;;;29.48;18.13;;;6.00;77.10;;;;;;5047460;28;20399;-64
2024/01/07 01:20:35;;;;;;;26.70;17.42;;;6.00;77.20;;;;;;5045972;28;20464;-64
2024/01/07 01:23:03;;;;;;;29.90;18.73;;;6.00;77.20;;;;;;5050739;28;20033;-64
2024/01/07 01:25:30;;;;;;;32.20;19.48;;;6.00;77.30;;;;;;5032031;28;20402;-64
2024/01/07 01:28:00;;;;;;;27.33;17.13;;;6.00;77.50;;;;;;5046098;28;20124;-64
2024/01/07 01:30:30;;;;;;;23.95;15.68;;;6.00;77.70;;;;;;5032245;28;20069;-64
2024/01/07 01:32:57;;;;;;;25.30;16.25;;;6.00;77.70;;;;;;5032936;28;20103;-63
2024/01/07 01:35:24;;;;;;;25.60;15.90;;;6.00;77.50;;;;;;5044621;28;20041;-63
2024/01/07 01:37:51;;;;;;;23.60;15.07;;;6.00;77.50;;;;;;5031147;28;20051;-66
2024/01/07 01:40:18;;;;;;;26.08;15.45;;;6.00;77.60;;;;;;5049645;28;20045;-64
2024/01/07 01:42:46;;;;;;;22.48;15.00;;;6.00;77.80;;;;;;5032672;28;20454;-65
2024/01/07 01:45:14;;;;;;;23.98;15.25;;;6.00;78.00;;;;;;5026342;28;20045;-64
2024/01/07 01:47:42;;;;;;;23.35;15.40;;;6.00;77.90;;;;;;5030824;28;20049;-63
2024/01/07 01:50:10;;;;;;;24.67;15.68;;;6.00;77.90;;;;;;5027533;28;20037;-63
2024/01/07 01:52:37;;;;;;;24.52;16.60;;;6.00;78.10;;;;;;5048171;28;20099;-63
2024/01/07 01:55:09;;;;;;;26.67;15.85;;;6.00;78.10;;;;;;5028385;28;20033;-66
2024/01/07 01:57:38;;;;;;;25.35;15.82;;;6.00;78.10;;;;;;5024385;28;20571;-64
2024/01/07 02:00:05;;;;;;;24.88;15.30;;;6.00;78.30;;;;;;5068629;23;20105;-59
2024/01/07 02:02:34;;;;;;;25.35;15.57;;;6.00;78.30;;;;;;4991865;28;20041;-60
2024/01/07 02:05:04;;;;;;;22.15;15.35;;;6.00;78.40;;;;;;5007744;28;20404;-56
2024/01/07 02:07:32;;;;;;;23.02;14.05;;;6.00;78.40;;;;;;5009265;28;20072;-58
2024/01/07 02:09:59;;;;;;;22.00;14.70;;;6.00;78.40;;;;;;4992405;28;20439;-58
2024/01/07 02:12:28;;;;;;;22.58;13.57;;;6.00;78.50;;;;;;4988022;28;20053;-60
2024/01/07 02:14:55;;;;;;;21.75;14.18;;;6.00;78.50;;;;;;4978156;28;20501;-57
2024/01/07 02:17:27;;;;;;;20.88;13.88;;;6.00;78.50;;;;;;4972300;28;20061;-58
2024/01/07 02:20:03;;;;;;;22.48;13.73;;;6.00;78.50;;;;;;4986889;28;20042;-60
2024/01/07 02:22:29;;;;;;;24.10;14.25;;;6.00;78.40;;;;;;4971741;28;20412;-58
2024/01/07 02:24:56;;;;;;;23.02;13.93;;;6.00;78.40;;;;;;4990196;28;20052;-55
2024/01/07 02:27:23;;;;;;;23.15;13.60;;;6.00;78.30;;;;;;4990253;28;20404;-56
2024/01/07 02:29:52;;;;;;;24.00;13.88;;;6.00;78.40;;;;;;4989326;28;20520;-59
2024/01/07 02:32:18;;;;;;;20.55;14.75;;;6.00;78.40;;;;;;4973401;28;20054;-57
2024/01/07 02:34:46;;;;;;;18.85;12.85;;;6.00;78.40;;;;;;4990098;28;20056;-58
2024/01/07 02:37:13;;;;;;;24.30;15.25;;;6.00;78.40;;;;;;4970640;28;20505;-59
2024/01/07 02:39:40;;;;;;;20.48;13.70;;;6.10;78.40;;;;;;4985727;28;20050;-60
2024/01/07 02:42:11;;;;;;;24.88;15.32;;;6.10;78.30;;;;;;4990646;28;20042;-60
2024/01/07 02:44:40;;;;;;;20.70;12.93;;;6.10;78.30;;;;;;4972158;28;20050;-57
2024/01/07 02:47:14;;;;;;;21.63;13.23;;;6.10;78.80;;;;;;4971792;28;20053;-60
2024/01/07 02:49:42;;;;;;;23.70;15.45;;;6.10;78.00;;;;;;4985731;28;20062;-58
2024/01/07 02:52:12;;;;;;;20.48;13.40;;;6.20;77.70;;;;;;4967746;28;20045;-61
2024/01/07 02:54:39;;;;;;;21.92;13.65;;;6.20;77.60;;;;;;4989518;28;20058;-58
2024/01/07 02:57:07;;;;;;;23.75;15.27;;;6.20;77.60;;;;;;4988582;28;20417;-58
2024/01/07 02:59:43;;;;;;;22.27;13.68;;;6.20;77.60;;;;;;4988438;28;20054;-56
2024/01/07 03:02:16;;;;;;;22.50;14.20;;;6.20;77.40;;;;;;4990584;28;20045;-60
2024/01/07 03:04:46;;;;;;;22.25;15.05;;;6.20;77.50;;;;;;4987650;28;20054;-59
2024/01/07 03:07:12;;;;;;;21.17;13.75;;;6.20;77.50;;;;;;4984157;28;20101;-59
2024/01/07 03:09:45;;;;;;;20.75;14.02;;;6.20;77.50;;;;;;4988323;28;20043;-59
2024/01/07 03:12:19;;;;;;;25.13;14.18;;;6.20;77.60;;;;;;4990374;28;20520;-57
2024/01/07 03:14:46;;;;;;;21.90;13.77;;;6.20;77.60;;;;;;4989321;28;20060;-57
2024/01/07 03:17:17;;;;;;;19.50;13.25;;;6.20;77.50;;;;;;4985915;28;20049;-59
2024/01/07 03:19:46;;;;;;;20.58;13.13;;;6.20;77.40;;;;;;4985004;28;20100;-57
2024/01/07 03:22:20;;;;;;;17.83;12.10;;;6.20;77.40;;;;;;4990145;28;20042;-58
2024/01/07 03:24:47;;;;;;;18.40;12.48;;;6.20;77.30;;;;;;4988883;28;20390;-60
2024/01/07 03:27:17;;;;;;;18.25;12.52;;;6.20;77.20;;;;;;4989402;28;20042;-57
2024/01/07 03:29:47;;;;;;;18.50;12.65;;;6.20;77.10;;;;;;4983786;28;20057;-57
2024/01/07 03:32:16;;;;;;;22.08;16.02;;;6.20;77.10;;;;;;4990429;28;20433;-59
2024/01/07 03:34:44;;;;;;;21.38;15.25;;;6.20;76.70;;;;;;4989226;28;20053;-56
2024/01/07 03:37:17;;;;;;;21.17;14.60;;;6.10;76.70;;;;;;4988322;28;20086;-60
2024/01/07 03:39:52;;;;;;;21.50;14.38;;;6.10;76.60;;;;;;4983981;28;20249;-60
2024/01/07 03:42:19;;;;;;;20.55;14.80;;;6.10;76.50;;;;;;4988801;28;20049;-54
2024/01/07 03:44:49;;;;;;;22.00;14.82;;;6.10;76.50;;;;;;4989146;28;20099;-59
2024/01/07 03:47:17;;;;;;;21.45;15.15;;;6.00;76.50;;;;;;4983775;28;20058;-58
2024/01/07 03:49:51;;;;;;;23.00;15.10;;;6.00;76.50;;;;;;4984097;28;20060;-56
2024/01/07 03:52:20;;;;;;;24.58;15.50;;;6.00;76.70;;;;;;4988271;28;20521;-60
2024/01/07 03:54:46;;;;;;;23.75;14.95;;;6.00;76.80;;;;;;4988951;28;20420;-59
2024/01/07 03:57:13;;;;;;;20.85;14.50;;;6.00;76.80;;;;;;4987435;28;20047;-59
2024/01/07 03:59:40;;;;;;;21.02;14.10;;;6.00;76.80;;;;;;4989327;28;20470;-57
2024/01/07 04:02:11;;;;;;;21.05;14.60;;;6.00;76.70;;;;;;4993591;28;20089;-59
2024/01/07 04:04:40;;;;;;;21.95;14.23;;;6.00;76.70;;;;;;4992683;28;20042;-57
2024/01/07 04:07:07;;;;;;;23.30;15.35;;;6.00;76.70;;;;;;4989693;28;20137;-60
2024/01/07 04:09:41;;;;;;;21.55;14.25;;;6.00;76.80;;;;;;4993423;28;20089;-58
2024/01/07 04:12:08;;;;;;;;;;;6.00;76.80;;;;;;4999582;28;20046;-58
2024/01/07 04:14:37;;;;;;;20.13;12.45;;;6.00;76.80;;;;;;4992243;28;20358;-57
2024/01/07 04:17:08;;;;;;;23.70;14.88;;;6.00;76.60;;;;;;4989162;28;20057;-60
2024/01/07 04:19:38;;;;;;;25.23;15.05;;;6.00;76.60;;;;;;4987231;28;20158;-57
2024/01/07 04:22:09;;;;;;;21.40;14.52;;;6.00;76.60;;;;;;4993400;28;20052;-59
2024/01/07 04:24:41;;;;;;;26.20;16.07;;;6.00;76.60;;;;;;4992583;28;20043;-57
2024/01/07 04:27:12;;;;;;;;;;;6.00;76.60;;;;;;4993680;28;20049;-58
2024/01/07 04:29:44;;;;;;;23.30;14.25;;;6.00;76.70;;;;;;4986222;28;19934;-59
2024/01/07 04:32:11;;;;;;;24.83;14.63;;;6.00;76.20;;;;;;4992041;28;20034;-57
2024/01/07 04:34:40;;;;;;;25.65;17.25;;;6.00;76.30;;;;;;4993535;28;20429;-59
2024/01/07 04:37:14;;;;;;;23.45;15.88;;;5.90;76.30;;;;;;4996585;28;20073;-59
2024/01/07 04:39:41;;;;;;;26.40;16.17;;;5.90;76.50;;;;;;4993813;28;20471;-54
2024/01/07 04:42:13;;;;;;;23.50;15.23;;;5.90;76.50;;;;;;4992826;28;20049;-59
2024/01/07 04:44:40;;;;;;;22.67;15.13;;;5.90;76.50;;;;;;4991732;28;20035;-56
2024/01/07 04:47:33;;;;;;;24.60;15.80;;;5.90;76.70;;;;;;4983044;28;20097;-59
2024/01/07 04:50:01;;;;;;;23.48;14.93;;;5.90;76.70;;;;;;4988676;28;20125;-58
2024/01/07 04:52:34;;;;;;;;;;;5.90;76.70;;;;;;4992950;28;20516;-56
2024/01/07 04:55:01;;;;;;;19.58;12.88;;;5.90;76.80;;;;;;4991435;28;19945;-59
2024/01/07 04:57:28;;;;;;;23.05;13.45;;;5.90;76.60;;;;;;4991697;28;20046;-58
2024/01/07 04:59:59;;;;;;;23.50;13.98;;;5.90;76.60;;;;;;4986949;28;20041;-57
2024/01/07 05:02:26;;;;;;;22.88;15.27;;;5.90;76.70;;;;;;4992298;28;20050;-59
2024/01/07 05:04:56;;;;;;;23.92;14.50;;;5.90;76.80;;;;;;4991433;28;20100;-58
2024/01/07 05:07:26;;;;;;;24.52;17.40;;;5.90;76.80;;;;;;4990213;28;20928;-59
2024/01/07 05:10:01;;;;;;;23.27;14.88;;;6.00;76.50;;;;;;4989135;28;20084;-58
2024/01/07 05:12:30;;;;;;;22.40;15.27;;;5.90;76.50;;;;;;4995764;28;20061;-59
2024/01/07 05:15:02;;;;;;;24.33;15.73;;;6.00;76.40;;;;;;4991688;28;20047;-58
2024/01/07 05:17:37;;;;;;;27.20;16.05;;;5.90;76.30;;;;;;4982312;28;20587;-59
2024/01/07 05:20:08;;;;;;;20.17;14.10;;;5.90;76.30;;;;;;4989289;28;20042;-57
2024/01/07 05:22:36;;;;;;;24.50;16.23;;;6.00;76.30;;;;;;4984273;28;20081;-59
2024/01/07 05:25:04;;;;;;;21.95;15.05;;;5.90;76.30;;;;;;4985504;28;20105;-58
2024/01/07 05:27:31;;;;;;;20.58;13.90;;;5.90;76.90;;;;;;4983536;28;20093;-57
2024/01/07 05:29:58;;;;;;;21.45;14.20;;;5.90;76.20;;;;;;4981161;28;20045;-58
2024/01/07 05:32:29;;;;;;;21.85;13.30;;;5.90;76.20;;;;;;4990946;28;20058;-60
2024/01/07 05:34:58;;;;;;;18.42;14.02;;;5.90;76.20;;;;;;4984357;28;20041;-59
2024/01/07 05:37:29;;;;;;;20.50;13.45;;;5.90;76.10;;;;;;4980999;28;20054;-57
2024/01/07 05:40:06;;;;;;;17.27;12.73;;;5.90;76.00;;;;;;4990715;28;20069;-59
2024/01/07 05:42:34;;;;;;;17.55;11.93;;;5.90;76.00;;;;;;4990407;28;20057;-59
2024/01/07 05:45:03;;;;;;;16.67;12.90;;;5.90;76.20;;;;;;4983762;28;20117;-59
2024/01/07 05:47:30;;;;;;;17.88;13.50;;;5.90;76.30;;;;;;4973218;28;20128;-56
2024/01/07 05:49:56;;;;;;;19.50;12.70;;;5.90;76.30;;;;;;4985699;28;20394;-59
2024/01/07 05:52:27;;;;;;;16.02;12.55;;;5.90;76.20;;;;;;4984694;28;20043;-59
2024/01/07 05:54:54;;;;;;;17.35;12.73;;;5.90;76.00;;;;;;4984337;28;20089;-58
2024/01/07 05:57:20;;;;;;;19.63;13.60;;;5.90;76.10;;;;;;4987157;28;20336;-59
2024/01/07 05:59:47;;;;;;;19.20;14.48;;;5.90;76.00;;;;;;4989498;28;20197;-60
2024/01/07 06:02:24;;;;;;;20.10;15.00;;;5.90;75.80;;;;;;4977423;28;20031;-60
2024/01/07 06:05:15;;;;;;;23.05;15.13;;;5.90;75.70;;;;;;4988487;28;20054;-55
2024/01/07 06:07:42;;;;;;;21.52;14.30;;;5.90;75.70;;;;;;4990514;28;20061;-57
2024/01/07 06:10:09;;;;;;;22.35;15.95;;;5.90;75.70;;;;;;4990361;28;20038;-58
2024/01/07 06:12:43;;;;;;;19.50;15.88;;;5.90;75.70;;;;;;4976042;28;20055;-59
2024/01/07 06:15:14;;;;;;;23.95;15.50;;;5.90;75.70;;;;;;4989074;28;20042;-56
2024/01/07 06:17:48;;;;;;;22.40;15.43;;;5.80;75.70;;;;;;4979647;28;20098;-58
2024/01/07 06:20:17;;;;;;;23.67;15.20;;;5.80;75.80;;;;;;4987435;28;20034;-56
2024/01/07 06:22:45;;;;;;;24.95;15.00;;;5.80;75.90;;;;;;4989219;28;20050;-57
2024/01/07 06:25:18;;;;;;;18.42;13.57;;;5.80;76.00;;;;;;4989977;28;20085;-59
2024/01/07 06:27:47;;;;;;;;;;;5.80;75.90;;;;;;4987323;28;20046;-55
2024/01/07 06:30:20;;;;;;;17.77;12.48;;;5.80;75.90;;;;;;4987649;28;19998;-59
2024/01/07 06:32:51;;;;;;;17.67;12.27;;;5.80;75.70;;;;;;4990526;28;20050;-57
2024/01/07 06:35:18;;;;;;;16.77;12.23;;;5.80;75.60;;;;;;4983660;28;20273;-58
2024/01/07 06:37:51;;;;;;;19.00;12.13;;;5.80;75.70;;;;;;4983233;28;20058;-57
2024/01/07 06:40:18;;;;;;;16.33;12.25;;;5.80;75.70;;;;;;4989882;28;20066;-59
2024/01/07 06:42:49;;;;;;;19.45;13.13;;;5.80;75.60;;;;;;4987175;28;20129;-60
2024/01/07 06:45:17;;;;;;;17.65;13.27;;;5.70;75.40;;;;;;4989974;28;20061;-59
2024/01/07 06:47:44;;;;;;;18.20;12.98;;;5.70;75.40;;;;;;4985000;28;20509;-56
2024/01/07 06:50:22;;;;;;;19.50;12.65;;;5.70;75.50;;;;;;4985977;28;20111;-61
2024/01/07 06:52:51;;;;;;;16.77;12.77;;;5.70;75.60;;;;;;4989169;28;20562;-56
2024/01/07 06:55:19;;;;;;;20.00;13.18;;;5.70;75.60;;;;;;4987960;28;20038;-56
2024/01/07 06:57:45;;;;;;;16.98;12.38;;;5.70;75.60;;;;;;4989230;28;20073;-59
2024/01/07 07:00:13;;;;;;;20.23;15.40;;;5.70;75.60;;;;;;4970285;28;20046;-59
2024/01/07 07:02:43;;;;;;;22.83;14.68;;;5.70;75.60;;;;;;4980506;28;20042;-59
2024/01/07 07:05:09;;;;;;;25.75;15.35;;;5.60;75.30;;;;;;4989662;28;20038;-59
2024/01/07 07:07:36;;;;;;;23.02;15.77;;;5.60;75.40;;;;;;4982600;28;20125;-60
2024/01/07 07:10:11;;;;;;;14.35;10.60;;;5.60;75.60;;;;;;4986285;28;20054;-59
2024/01/07 07:12:37;;;;;;;19.50;13.73;;;5.60;75.60;;;;;;4984997;28;20050;-58
2024/01/07 07:15:10;;;;;;;18.77;13.40;;;5.60;75.70;;;;;;4988836;28;20046;-56
2024/01/07 07:17:43;;;;;;;17.80;12.95;;;5.60;75.70;;;;;;4985263;28;20061;-57
2024/01/07 07:20:16;;;;;;;19.63;12.68;;;5.60;75.80;;;;;;4986768;28;20045;-58
2024/01/07 07:22:43;;;;;;;20.60;13.20;;;5.60;75.90;;;;;;4964369;28;20054;-60
2024/01/07 07:25:14;;;;;;;17.55;12.52;;;5.60;75.90;;;;;;4989620;28;20097;-59
2024/01/07 07:27:43;;;;;;;15.02;11.25;;;5.60;75.90;;;;;;4987555;28;20085;-59
2024/01/07 07:30:15;;;;;;;16.90;11.75;;;5.60;75.80;;;;;;4981201;28;20460;-58
2024/01/07 07:32:42;;;;;;;16.35;11.50;;;5.60;75.80;;;;;;4987048;28;20405;-58
2024/01/07 07:35:08;;;;;;;15.23;12.18;;;5.50;75.80;;;;;;4991710;28;20077;-58
2024/01/07 07:37:35;;;;;;;16.25;11.75;;;5.50;76.20;;;;;;4971370;28;20137;-58
2024/01/07 07:40:02;;;;;;;17.65;13.57;;;5.50;76.10;;;;;;4992119;28;20128;-58
2024/01/07 07:42:29;;;;;;;15.75;12.10;;;5.40;75.90;;;;;;4991987;28;20408;-59
2024/01/07 07:45:02;;;;;;;18.02;13.45;;;5.40;76.00;;;;;;4986917;28;20410;-59
2024/01/07 07:47:31;;;;;;;18.88;13.15;;;5.40;76.00;;;;;;4991101;28;20050;-56
2024/01/07 07:50:01;;;;;;;20.70;13.93;;;5.30;75.90;;;;;;4973977;28;20053;-57
2024/01/07 07:52:33;;;;;;;20.50;13.00;;;5.30;75.90;;;;;;4991653;28;20066;-60
2024/01/07 07:55:07;;;;;;;16.33;12.88;;;5.30;76.00;;;;;;4983279;28;20921;-59
2024/01/07 07:57:46;;;;;;;20.60;13.70;;;5.30;76.00;;;;;;4991868;28;20057;-57
2024/01/07 08:00:14;;;;;;;21.85;13.25;;;5.30;76.00;;;;;;4975098;28;20497;-60
2024/01/07 08:02:41;;;;;;;18.15;13.32;;;5.30;76.10;;;;;;4982357;28;20046;-59
2024/01/07 08:05:13;;;;;;;19.42;14.73;;;5.30;76.20;;;;;;4990275;28;20093;-60
2024/01/07 08:07:40;;;;;;;;;;;5.20;76.10;;;;;;4986352;28;20077;-59
2024/01/07 08:10:08;;;;;;;23.45;15.07;;;5.30;76.20;;;;;;4990014;28;20416;-59
2024/01/07 08:12:39;;;;;;;22.23;15.00;;;5.30;75.90;;;;;;4991598;28;20141;-57
2024/01/07 08:15:08;;;;;;;24.83;15.68;;;5.20;76.00;;;;;;5017606;23;20158;-64
2024/01/07 08:17:35;;;;;;;24.17;16.88;;;5.20;76.10;;;;;;5051750;28;20061;-63
2024/01/07 08:20:05;;;;;;;20.25;15.40;;;5.20;76.30;;;;;;5034324;28;20055;-61
2024/01/07 08:22:32;;;;;;;22.33;16.08;;;5.20;76.00;;;;;;5059909;28;20110;-63
2024/01/07 08:24:59;;;;;;;22.75;15.80;;;5.30;76.10;;;;;;5051114;28;20124;-62
2024/01/07 08:27:27;;;;;;;23.55;14.63;;;5.20;76.20;;;;;;5055636;28;20049;-64
2024/01/07 08:29:54;;;;;;;23.35;14.40;;;5.20;76.20;;;;;;5055452;28;20045;-62
2024/01/07 08:32:22;;;;;;;21.45;15.13;;;5.20;76.20;;;;;;5056746;28;20091;-65
2024/01/07 08:34:49;;;;;;;18.90;12.88;;;5.20;75.90;;;;;;5061093;28;20419;-67
2024/01/07 08:37:16;;;;;;;21.70;13.80;;;5.20;75.70;;;;;;5054032;28;20051;-64
2024/01/07 08:39:43;;;;;;;17.77;12.88;;;5.20;75.70;;;;;;5049276;28;20041;-66
2024/01/07 08:42:09;;;;;;;15.57;12.38;;;5.20;75.60;;;;;;5063374;28;20044;-66
2024/01/07 08:44:36;;;;;;;22.90;14.95;;;5.20;75.50;;;;;;5060772;28;20159;-63
2024/01/07 08:47:03;;;;;;;18.17;13.60;;;5.20;75.50;;;;;;5059806;28;20695;-63
2024/01/07 08:49:33;;;;;;;19.55;13.55;;;5.20;75.60;;;;;;5036035;28;20048;-63
2024/01/07 08:52:00;;;;;;;16.17;11.93;;;5.20;75.70;;;;;;5059144;28;20120;-62
2024/01/07 08:54:27;;;;;;;18.40;13.30;;;5.20;75.90;;;;;;5063044;28;20693;-62
2024/01/07 08:56:54;;;;;;;21.10;12.80;;;5.20;75.80;;;;;;5057761;28;20037;-62
2024/01/07 08:59:21;;;;;;;19.85;13.10;;;5.20;75.70;;;;;;5053569;28;20058;-63
2024/01/07 09:01:47;;;;;;;19.08;15.63;;;5.20;75.60;;;;;;5055371;28;20041;-63
2024/01/07 09:04:17;;;;;;;20.58;14.02;;;5.20;75.60;;;;;;5062505;28;20040;-66
2024/01/07 09:06:44;;;;;;;19.75;14.27;;;5.20;75.60;;;;;;5053860;28;20474;-62
2024/01/07 09:09:11;;;;;;;20.25;13.82;;;5.20;75.70;;;;;;5061022;28;20043;-63
2024/01/07 09:11:38;;;;;;;17.52;12.95;;;5.20;75.60;;;;;;5051975;28;20056;-63
2024/01/07 09:14:05;;;;;;;17.35;12.23;;;5.20;75.60;;;;;;5061150;28;20510;-64
2024/01/07 09:16:32;;;;;;;18.40;12.95;;;5.20;75.60;;;;;;5058473;28;20530;-63
2024/01/07 09:18:58;;;;;;;17.27;13.38;;;5.20;75.40;;;;;;5049476;28;20045;-63
2024/01/07 09:21:27;;;;;;;19.75;13.15;;;5.20;75.30;;;;;;5063429;28;20414;-64
2024/01/07 09:23:54;;;;;;;19.13;12.73;;;5.20;75.40;;;;;;5057919;28;20044;-67
2024/01/07 09:26:22;;;;;;;18.25;11.80;;;5.30;75.40;;;;;;5062608;28;20380;-63
2024/01/07 09:28:49;;;;;;;19.05;12.77;;;5.30;75.40;;;;;;5045831;28;20037;-66
2024/01/07 09:31:15;;;;;;;16.75;12.38;;;5.30;75.50;;;;;;5055811;28;20110;-64
2024/01/07 09:33:45;;;;;;;15.70;11.85;;;5.30;75.60;;;;;;5059377;28;20049;-64
2024/01/07 09:36:12;;;;;;;17.30;13.48;;;5.30;75.60;;;;;;5053071;28;20125;-64
2024/01/07 09:38:55;;;;;;;18.73;13.25;;;5.30;75.60;;;;;;5055336;28;20064;-63
2024/01/07 09:41:23;;;;;;;18.13;12.85;;;5.40;75.70;;;;;;5051962;28;20044;-63
2024/01/07 09:43:53;;;;;;;15.98;12.10;;;5.40;75.60;;;;;;5050236;28;20049;-64
2024/01/07 09:46:20;;;;;;;15.70;12.30;;;5.40;75.40;;;;;;5054928;28;20037;-63
2024/01/07 09:48:46;;;;;;;15.95;12.40;;;5.40;75.40;;;;;;5041343;28;20061;-63
2024/01/07 09:51:21;;;;;;;18.15;13.77;;;5.50;75.20;;;;;;5050051;28;20055;-63
2024/01/07 09:53:48;;;;;;;;;;;5.50;74.80;;;;;;5058625;28;20422;-64
2024/01/07 09:56:34;;;;;;;16.20;11.43;;;5.50;74.70;;;;;;5035444;28;20318;-66
2024/01/07 09:59:01;;;;;;;16.20;11.82;;;5.50;74.60;;;;;;5050956;28;20041;-65
2024/01/07 10:01:28;;;;;;;18.30;13.63;;;5.50;74.60;;;;;;5060882;28;20494;-63
2024/01/07 10:03:56;;;;;;;16.92;13.68;;;5.50;74.70;;;;;;5057440;28;20098;-64
2024/01/07 10:06:23;;;;;;;20.13;15.00;;;5.50;74.90;;;;;;5047069;28;20033;-64
2024/01/07 10:08:50;;;;;;;18.60;13.57;;;5.50;75.00;;;;;;5050840;28;20041;-67
2024/01/07 10:11:17;;;;;;;19.92;13.88;;;5.50;75.00;;;;;;5044086;28;20148;-65
2024/01/07 10:13:51;;;;;;;18.85;14.02;;;5.50;74.90;;;;;;5053416;28;20493;-65
2024/01/07 10:16:18;;;;;;;17.42;14.13;;;5.40;75.00;;;;;;5053056;28;20041;-63
2024/01/07 10:18:44;;;;;;;19.52;13.88;;;5.50;75.20;;;;;;5048935;28;20052;-63
2024/01/07 10:21:11;;;;;;;19.80;14.52;;;5.50;75.10;;;;;;5049735;28;20056;-64
2024/01/07 10:23:38;;;;;;;21.23;16.10;;;5.50;75.00;;;;;;5056067;28;20105;-64
2024/01/07 10:26:05;;;;;;;20.52;14.70;;;5.50;74.70;;;;;;5055482;28;20052;-64
2024/01/07 10:28:45;;;;;;;18.08;14.52;;;5.50;74.50;;;;;;5050242;28;20068;-64
2024/01/07 10:31:13;;;;;;;20.48;13.82;;;5.50;74.30;;;;;;5044613;28;20053;-65
2024/01/07 10:33:40;;;;;;;22.08;14.88;;;5.50;74.30;;;;;;5023904;28;20088;-64
2024/01/07 10:36:09;;;;;;;20.35;15.27;;;5.50;74.10;;;;;;5055335;28;20040;-63
2024/01/07 10:38:36;;;;;;;24.08;15.57;;;5.40;74.10;;;;;;5055202;28;20422;-64
2024/01/07 10:41:06;;;;;;;23.35;15.55;;;5.40;74.10;;;;;;5043822;28;20106;-63
2024/01/07 10:43:36;;;;;;;18.52;14.40;;;5.40;74.30;;;;;;5059781;28;20511;-64
2024/01/07 10:46:04;;;;;;;20.40;15.15;;;5.40;74.30;;;;;;5054197;28;20443;-64
2024/01/07 10:48:36;;;;;;;20.15;14.75;;;5.40;74.30;;;;;;5055082;28;20044;-65
2024/01/07 10:51:03;;;;;;;19.43;13.83;;;5.40;74.20;;;;;;5051027;28;20056;-65
2024/01/07 10:53:37;;;;;;;18.50;14.25;;;5.40;74.10;;;;;;5043553;28;20557;-64
2024/01/07 10:56:05;;;;;;;19.23;14.70;;;5.40;74.00;;;;;;5048130;28;20558;-63
2024/01/07 10:58:37;;;;;;;17.30;13.93;;;5.40;74.00;;;;;;5053457;28;20116;-64
2024/01/07 11:01:04;;;;;;;16.80;11.23;;;5.50;73.90;;;;;;5055025;28;20488;-64
2024/01/07 11:03:46;;;;;;;16.60;13.60;;;5.50;74.00;;;;;;5059726;28;20576;-64
2024/01/07 11:06:21;;;;;;;22.30;14.95;;;5.50;73.50;;;;;;5046979;28;20438;-64
2024/01/07 11:09:03;;;;;;;20.58;14.32;;;5.50;73.50;;;;;;5056696;28;20092;-63
2024/01/07 11:11:41;;;;;;;19.05;14.52;;;5.50;73.50;;;;;;5045847;28;20565;-64
2024/01/07 11:14:52;;;;;;;18.13;14.15;;;5.50;73.60;;;;;;5046654;28;20056;-65
2024/01/07 11:17:40;;;;;;;19.00;14.07;;;5.50;73.30;;;;;;4956484;28;20038;-64
2024/01/07 11:20:12;;;;;;;17.17;13.77;;;5.60;73.50;;;;;;5045832;28;20048;-63
2024/01/07 11:22:38;;;;;;;;;;;5.60;73.60;;;;;;5055836;28;20067;-63
2024/01/07 11:25:30;;;;;;;17.25;12.70;;;5.60;73.30;;;;;;5053298;28;19925;-67
2024/01/07 11:27:58;;;;;;;14.77;11.38;;;5.60;73.10;;;;;;5034879;28;20041;-64
2024/01/07 11:30:25;;;;;;;15.32;11.32;;;5.60;73.20;;;;;;5056850;28;20825;-64
2024/01/07 11:32:59;;;;;;;15.43;11.57;;;5.60;72.90;;;;;;5054731;28;20049;-65
2024/01/07 11:36:01;;;;;;;15.32;11.30;;;5.60;72.70;;;;;;5050937;28;20056;-63
2024/01/07 11:38:28;;;;;;;13.50;10.45;;;5.60;72.50;;;;;;5056013;28;20575;-63
2024/01/07 11:40:56;;;;;;;15.23;10.10;;;5.70;73.00;;;;;;5053773;28;20119;-63
2024/01/07 11:43:23;;;;;;;14.68;12.38;;;5.60;73.00;;;;;;5053244;28;20049;-64
2024/01/07 11:45:50;;;;;;;15.05;11.18;;;5.60;72.90;;;;;;5045334;28;20407;-64
2024/01/07 11:48:20;;;;;;;12.20;10.40;;;5.70;73.10;;;;;;5050481;28;20041;-63
2024/01/07 11:50:47;;;;;;;12.30;10.70;;;5.70;72.90;;;;;;5052930;28;20053;-63
2024/01/07 11:53:16;;;;;;;14.80;10.77;;;5.70;72.80;;;;;;5052632;28;20049;-64
2024/01/07 11:55:45;;;;;;;14.38;10.68;;;5.70;72.50;;;;;;5052641;28;20521;-64
2024/01/07 11:58:11;;;;;;;13.05;10.57;;;5.70;72.30;;;;;;5048228;28;20449;-64
2024/01/07 12:00:38;;;;;;;13.68;11.18;;;5.70;72.40;;;;;;5054615;28;20051;-64
2024/01/07 12:03:05;;;;;;;11.63;10.38;;;5.70;72.50;;;;;;5053306;28;20041;-63
2024/01/07 12:05:31;;;;;;;16.50;11.48;;;5.70;72.50;;;;;;5048905;28;20034;-64
2024/01/07 12:08:00;;;;;;;13.98;10.80;;;5.70;72.20;;;;;;5052626;28;20116;-63
2024/01/07 12:10:27;;;;;;;12.07;10.15;;;5.70;71.90;;;;;;5054013;28;20076;-62
2024/01/07 12:12:54;;;;;;;15.77;11.43;;;5.70;71.80;;;;;;5045218;28;20075;-64
2024/01/07 12:15:23;;;;;;;12.25;10.15;;;5.70;71.70;;;;;;5050851;28;20041;-63
2024/01/07 12:18:01;;;;;;;13.07;10.38;;;5.60;71.50;;;;;;5045351;28;20056;-64
2024/01/07 12:20:29;;;;;;;13.27;10.18;;;5.60;71.10;;;;;;5052923;28;20133;-62
2024/01/07 12:22:57;;;;;;;12.02;10.30;;;5.60;71.40;;;;;;5056491;28;20490;-64
2024/01/07 12:25:24;;;;;;;14.90;10.55;;;5.60;71.30;;;;;;5057651;28;20106;-62
2024/01/07 12:27:53;;;;;;;15.93;11.20;;;5.60;71.30;;;;;;5050710;28;20040;-65
2024/01/07 12:30:20;;;;;;;13.30;10.15;;;5.60;71.30;;;;;;5028430;28;20124;-63
2024/01/07 12:32:51;;;;;;;12.00;9.75;;;5.50;71.40;;;;;;5049975;28;20509;-66
2024/01/07 12:35:18;;;;;;;11.23;8.97;;;5.50;71.20;;;;;;5051634;28;20044;-62
2024/01/07 12:37:45;;;;;;;13.45;10.15;;;5.50;71.40;;;;;;5049334;28;20386;-64
2024/01/07 12:40:12;;;;;;;15.60;11.45;;;5.50;71.40;;;;;;5054049;28;20049;-63
2024/01/07 12:42:44;;;;;;;17.15;11.18;;;5.50;71.30;;;;;;5043577;28;20090;-63
2024/01/07 12:45:14;;;;;;;11.10;9.98;;;5.50;71.20;;;;;;5051037;28;20036;-62
2024/01/07 12:47:42;;;;;;;12.30;9.10;;;5.50;71.20;;;;;;5050484;28;20115;-64
2024/01/07 12:50:10;;;;;;;10.63;9.00;;;5.50;71.30;;;;;;5047464;28;20041;-63